createdAt,value
2019-05-21T00:00:19.225Z,7.92
2019-05-21T00:02:47.680Z,7.75
2019-05-21T00:05:16.154Z,7.83
2019-05-21T00:07:44.664Z,7.50
2019-05-21T00:10:13.108Z,8.38
2019-05-21T00:12:41.590Z,8.33
2019-05-21T00:15:09.989Z,7.17
2019-05-21T00:17:38.472Z,7.10
2019-05-21T00:20:06.981Z,6.95
2019-05-21T00:22:35.653Z,7.20
2019-05-21T00:25:05.214Z,7.12
2019-05-21T00:27:35.733Z,6.28
2019-05-21T00:30:22.301Z,7.05
2019-05-21T00:33:08.990Z,6.20
2019-05-21T00:35:55.573Z,6.50
2019-05-21T00:38:42.324Z,6.22
2019-05-21T00:41:28.813Z,6.20
2019-05-21T00:44:18.045Z,5.92
2019-05-21T00:46:46.461Z,5.45
2019-05-21T00:49:14.918Z,5.78
2019-05-21T00:51:43.343Z,6.47
2019-05-21T00:54:11.839Z,6.22
2019-05-21T00:56:59.655Z,6.00
2019-05-21T00:59:28.079Z,6.47
2019-05-21T01:02:17.306Z,5.85
2019-05-21T01:04:59.760Z,5.97
2019-05-21T01:07:15.830Z,5.90
2019-05-21T01:09:44.294Z,5.92
2019-05-21T01:12:12.762Z,6.20
2019-05-21T01:14:41.203Z,6.08
2019-05-21T01:17:29.024Z,5.53
2019-05-21T01:19:57.435Z,5.65
2019-05-21T01:22:25.918Z,5.50
2019-05-21T01:24:54.353Z,6.33
2019-05-21T01:27:22.802Z,5.33
2019-05-21T01:29:51.233Z,5.58
2019-05-21T01:32:19.701Z,5.33
2019-05-21T01:34:48.128Z,5.80
2019-05-21T01:37:16.603Z,5.67
2019-05-21T01:39:45.029Z,5.78
2019-05-21T01:42:13.511Z,5.62
2019-05-21T01:44:41.966Z,5.03
2019-05-21T01:47:10.405Z,5.72
2019-05-21T01:49:38.858Z,5.37
2019-05-21T01:52:07.293Z,5.33
2019-05-21T01:54:35.739Z,5.53
2019-05-21T01:57:04.328Z,5.70
2019-05-21T01:59:32.861Z,5.12
2019-05-21T02:02:01.289Z,5.20
2019-05-21T02:04:29.754Z,5.47
2019-05-21T02:06:58.189Z,5.58
2019-05-21T02:09:26.670Z,5.87
2019-05-21T02:11:55.099Z,5.25
2019-05-21T02:14:23.580Z,5.83
2019-05-21T02:16:52.004Z,5.25
2019-05-21T02:19:20.474Z,5.37
2019-05-21T02:21:48.916Z,5.30
2019-05-21T02:24:17.412Z,6.08
2019-05-21T02:26:45.895Z,5.42
2019-05-21T02:29:14.363Z,5.80
2019-05-21T02:31:42.822Z,6.42
2019-05-21T02:34:11.257Z,6.55
2019-05-21T02:36:39.711Z,6.67
2019-05-21T02:39:08.154Z,6.00
2019-05-21T02:41:36.607Z,5.90
2019-05-21T02:44:05.055Z,6.10
2019-05-21T02:46:33.522Z,5.87
2019-05-21T02:49:01.965Z,6.12
2019-05-21T02:51:30.404Z,5.90
2019-05-21T02:53:58.825Z,6.30
2019-05-21T02:56:27.297Z,6.75
2019-05-21T02:58:55.729Z,6.92
2019-05-21T03:01:25.749Z,6.70
2019-05-21T03:03:54.195Z,7.20
2019-05-21T03:06:22.651Z,6.35
2019-05-21T03:08:51.072Z,5.97
2019-05-21T03:11:19.535Z,6.42
2019-05-21T03:13:47.987Z,5.45
2019-05-21T03:16:16.467Z,5.87
2019-05-21T03:18:44.894Z,5.80
2019-05-21T03:21:13.346Z,5.50
2019-05-21T03:23:41.861Z,5.25
2019-05-21T03:26:10.317Z,5.60
2019-05-21T03:28:38.774Z,5.22
2019-05-21T03:31:07.202Z,5.53
2019-05-21T03:33:35.684Z,5.50
2019-05-21T03:36:04.110Z,5.30
2019-05-21T03:38:32.582Z,5.33
2019-05-21T03:41:01.032Z,6.05
2019-05-21T03:43:29.483Z,5.12
2019-05-21T03:45:57.901Z,5.53
2019-05-21T03:48:26.330Z,5.53
2019-05-21T03:50:54.746Z,5.58
2019-05-21T03:53:23.188Z,5.60
2019-05-21T03:55:51.609Z,5.00
2019-05-21T03:58:20.059Z,5.60
2019-05-21T04:00:48.488Z,5.30
2019-05-21T04:03:16.939Z,4.95
2019-05-21T04:05:45.358Z,5.58
2019-05-21T04:08:17.595Z,5.85
2019-05-21T04:10:47.701Z,5.47
2019-05-21T04:13:30.930Z,6.67
2019-05-21T04:19:02.477Z,5.67
2019-05-21T04:21:40.065Z,4.90
2019-05-21T04:24:31.331Z,5.20
2019-05-21T04:29:58.290Z,5.35
2019-05-21T04:32:31.235Z,5.00
2019-05-21T04:34:59.662Z,5.80
2019-05-21T04:37:36.683Z,5.15
2019-05-21T04:40:07.467Z,6.05
2019-05-21T04:45:26.862Z,4.78
2019-05-21T04:47:55.416Z,5.28
2019-05-21T04:50:25.114Z,5.47
2019-05-21T04:52:53.546Z,4.83
2019-05-21T04:55:22.007Z,4.92
2019-05-21T04:57:50.443Z,4.97
2019-05-21T05:00:18.866Z,5.15
2019-05-21T05:02:47.334Z,4.72
2019-05-21T05:05:15.755Z,4.72
2019-05-21T05:07:44.309Z,4.65
2019-05-21T05:10:12.733Z,4.22
2019-05-21T05:12:41.153Z,4.20
2019-05-21T05:15:09.594Z,5.15
2019-05-21T05:17:38.028Z,4.33
2019-05-21T05:20:06.467Z,4.50
2019-05-21T05:22:34.890Z,4.40
2019-05-21T05:25:04.238Z,3.98
2019-05-21T05:27:32.654Z,4.25
2019-05-21T05:30:01.176Z,4.58
2019-05-21T05:32:29.626Z,4.87
2019-05-21T05:34:58.052Z,4.67
2019-05-21T05:37:26.479Z,4.50
2019-05-21T05:39:54.921Z,4.50
2019-05-21T05:42:23.368Z,4.47
2019-05-21T05:44:51.786Z,3.58
2019-05-21T05:47:20.262Z,4.03
2019-05-21T05:49:53.345Z,4.65
2019-05-21T05:52:21.800Z,4.87
2019-05-21T05:54:50.211Z,4.47
2019-05-21T05:57:18.643Z,3.92
2019-05-21T05:59:47.097Z,4.10
2019-05-21T06:02:15.537Z,3.85
2019-05-21T06:04:43.958Z,4.78
2019-05-21T06:07:12.387Z,4.40
2019-05-21T06:09:40.810Z,4.20
2019-05-21T06:12:09.258Z,4.37
2019-05-21T06:14:37.669Z,4.55
2019-05-21T06:17:06.167Z,4.58
2019-05-21T06:19:34.649Z,4.25
2019-05-21T06:22:03.067Z,4.10
2019-05-21T06:24:31.551Z,4.65
2019-05-21T06:26:59.976Z,4.10
2019-05-21T06:29:30.950Z,4.33
2019-05-21T06:31:59.380Z,4.53
2019-05-21T06:34:37.191Z,4.22
2019-05-21T06:37:17.360Z,4.25
2019-05-21T06:39:50.495Z,4.62
2019-05-21T06:42:26.991Z,4.03
2019-05-21T06:44:55.454Z,3.98
2019-05-21T06:47:23.919Z,4.33
2019-05-21T06:49:52.357Z,4.40
2019-05-21T06:52:31.546Z,4.80
2019-05-21T06:55:04.518Z,4.67
2019-05-21T06:57:32.935Z,3.80
2019-05-21T07:00:01.585Z,4.08
2019-05-21T07:02:29.981Z,3.80
2019-05-21T07:04:58.456Z,3.25
2019-05-21T07:07:26.854Z,3.70
2019-05-21T07:09:55.313Z,3.87
2019-05-21T07:12:23.780Z,3.95
2019-05-21T07:14:52.182Z,3.30
2019-05-21T07:17:20.636Z,3.05
2019-05-21T07:19:49.073Z,3.42
2019-05-21T07:22:17.519Z,3.85
2019-05-21T07:24:45.957Z,3.70
2019-05-21T07:27:14.385Z,3.47
2019-05-21T07:29:42.811Z,3.27
2019-05-21T07:32:11.293Z,3.15
2019-05-21T07:34:39.737Z,2.90
2019-05-21T07:37:08.192Z,3.83
2019-05-21T07:39:36.621Z,3.45
2019-05-21T07:42:05.090Z,3.65
2019-05-21T07:44:33.538Z,3.70
2019-05-21T07:47:01.978Z,3.60
2019-05-21T07:49:30.425Z,3.27
2019-05-21T07:51:58.892Z,3.92
2019-05-21T07:54:28.149Z,3.67
2019-05-21T07:56:57.022Z,3.22
2019-05-21T07:59:25.564Z,4.03
2019-05-21T08:01:53.984Z,3.08
2019-05-21T08:04:41.838Z,3.08
2019-05-21T08:07:10.237Z,3.47
2019-05-21T08:09:38.687Z,3.42
2019-05-21T08:12:27.901Z,4.17
2019-05-21T08:14:37.198Z,3.45
2019-05-21T08:17:05.617Z,2.95
2019-05-21T08:19:34.069Z,3.20
2019-05-21T08:22:02.484Z,3.27
2019-05-21T08:24:30.980Z,3.30
2019-05-21T08:26:59.396Z,3.30
2019-05-21T08:29:27.856Z,3.55
2019-05-21T08:31:56.426Z,3.17
2019-05-21T08:34:24.870Z,3.87
2019-05-21T08:36:53.343Z,3.12
2019-05-21T08:39:28.968Z,3.35
2019-05-21T08:41:51.917Z,3.15
2019-05-21T08:44:20.460Z,2.92
2019-05-21T08:46:48.926Z,3.40
2019-05-21T08:49:17.402Z,3.37
2019-05-21T08:51:45.851Z,3.25
2019-05-21T08:54:15.889Z,3.27
2019-05-21T08:56:44.337Z,3.55
2019-05-21T08:59:12.761Z,3.37
2019-05-21T09:01:41.233Z,3.50
2019-05-21T09:04:09.685Z,3.42
2019-05-21T09:06:38.139Z,3.45
2019-05-21T09:09:06.579Z,4.05
2019-05-21T09:11:35.029Z,3.10
2019-05-21T09:14:03.623Z,3.87
2019-05-21T09:16:32.530Z,3.15
2019-05-21T09:19:01.062Z,3.40
2019-05-21T09:21:29.508Z,3.75
2019-05-21T09:23:57.997Z,3.25
2019-05-21T09:26:26.419Z,3.00
2019-05-21T09:28:54.882Z,3.10
2019-05-21T09:31:23.313Z,3.40
2019-05-21T09:33:51.781Z,3.52
2019-05-21T09:36:20.323Z,3.45
2019-05-21T09:38:48.775Z,3.27
2019-05-21T09:41:36.628Z,3.77
2019-05-21T09:44:05.030Z,3.20
2019-05-21T09:46:33.421Z,3.80
2019-05-21T09:49:01.831Z,3.20
2019-05-21T09:51:30.240Z,3.45
2019-05-21T09:53:58.628Z,2.80
2019-05-21T09:56:33.368Z,3.50
2019-05-21T09:59:22.468Z,3.20
2019-05-21T10:02:14.534Z,3.80
2019-05-21T10:04:42.977Z,3.60
2019-05-21T10:07:11.458Z,3.67
2019-05-21T10:09:39.830Z,3.30
2019-05-21T10:12:08.462Z,3.90
2019-05-21T10:14:36.895Z,3.05
2019-05-21T10:17:05.314Z,3.50
2019-05-21T10:19:33.852Z,3.37
2019-05-21T10:22:02.363Z,4.17
2019-05-21T10:24:30.878Z,3.67
2019-05-21T10:26:59.361Z,3.45
2019-05-21T10:29:27.782Z,3.22
2019-05-21T10:32:00.412Z,3.42
2019-05-21T10:34:28.838Z,3.40
2019-05-21T10:36:57.328Z,3.35
2019-05-21T10:39:25.770Z,3.67
2019-05-21T10:41:54.181Z,3.27
2019-05-21T10:44:22.630Z,3.20
2019-05-21T10:46:51.065Z,3.35
2019-05-21T10:49:19.502Z,3.70
2019-05-21T10:51:47.947Z,3.20
2019-05-21T10:54:16.435Z,3.85
2019-05-21T10:56:48.069Z,3.20
2019-05-21T10:59:15.036Z,3.72
2019-05-21T11:02:03.105Z,3.35
2019-05-21T11:05:07.508Z,3.85
2019-05-21T11:07:35.934Z,3.62
2019-05-21T11:10:07.135Z,3.30
2019-05-21T11:12:36.124Z,3.80
2019-05-21T11:15:08.927Z,3.40
2019-05-21T11:17:50.017Z,3.60
2019-05-21T11:20:07.460Z,3.27
2019-05-21T11:22:35.902Z,3.77
2019-05-21T11:25:09.530Z,3.20
2019-05-21T11:27:38.075Z,3.85
2019-05-21T11:30:08.715Z,3.67
2019-05-21T11:32:37.309Z,3.65
2019-05-21T11:35:06.376Z,3.47
2019-05-21T11:37:34.850Z,3.35
2019-05-21T11:40:11.728Z,3.90
2019-05-21T11:42:53.086Z,3.10
2019-05-21T11:45:31.555Z,3.40
2019-05-21T11:47:55.064Z,3.02
2019-05-21T11:50:23.909Z,3.77
2019-05-21T11:52:52.554Z,3.20
2019-05-21T11:55:21.000Z,3.85
2019-05-21T11:57:49.741Z,3.27
2019-05-21T12:00:21.662Z,3.20
2019-05-21T12:02:49.546Z,3.33
2019-05-21T12:05:18.016Z,3.02
2019-05-21T12:07:56.399Z,3.10
2019-05-21T12:10:24.845Z,3.37
2019-05-21T12:12:53.338Z,3.12
2019-05-21T12:15:22.127Z,4.03
2019-05-21T12:17:55.711Z,3.83
2019-05-21T12:23:01.453Z,3.00
2019-05-21T12:25:37.298Z,3.45
2019-05-21T12:28:05.815Z,3.12
2019-05-21T12:30:45.668Z,3.10
2019-05-21T12:33:22.806Z,2.95
2019-05-21T12:35:51.345Z,3.30
2019-05-21T12:38:19.856Z,3.25
2019-05-21T12:40:48.374Z,3.42
2019-05-21T12:43:16.818Z,3.22
2019-05-21T12:45:45.272Z,3.12
2019-05-21T12:48:13.717Z,3.37
2019-05-21T12:50:48.456Z,3.10
2019-05-21T12:53:18.920Z,3.30
2019-05-21T12:55:47.364Z,2.80
2019-05-21T12:58:15.814Z,3.90
2019-05-21T13:00:44.293Z,3.65
2019-05-21T13:03:12.739Z,3.72
2019-05-21T13:05:41.208Z,3.10
2019-05-21T13:08:09.633Z,3.15
2019-05-21T13:10:45.894Z,3.12
2019-05-21T13:13:22.302Z,3.72
2019-05-21T13:15:54.886Z,4.03
2019-05-21T13:18:23.321Z,3.00
2019-05-21T13:20:51.758Z,3.70
2019-05-21T13:23:24.795Z,3.52
2019-05-21T13:26:04.118Z,3.42
2019-05-21T13:28:32.549Z,3.20
2019-05-21T13:31:01.017Z,3.40
2019-05-21T13:33:29.527Z,3.70
2019-05-21T13:35:58.050Z,3.45
2019-05-21T13:38:27.141Z,3.40
2019-05-21T13:40:56.221Z,2.87
2019-05-21T13:43:24.791Z,3.42
2019-05-21T13:45:56.263Z,3.22
2019-05-21T13:48:24.805Z,3.17
2019-05-21T13:50:53.309Z,2.75
2019-05-21T13:53:22.560Z,3.35
2019-05-21T13:55:51.000Z,3.50
2019-05-21T13:58:19.482Z,3.60
2019-05-21T14:01:02.678Z,3.80
2019-05-21T14:06:06.718Z,3.30
2019-05-21T14:08:41.086Z,3.30
2019-05-21T14:11:15.834Z,2.80
2019-05-21T14:22:06.320Z,2.98
2019-05-21T14:24:34.978Z,3.08
2019-05-21T14:27:04.197Z,3.12
2019-05-21T14:29:32.659Z,3.65
2019-05-21T14:32:10.421Z,2.55
2019-05-21T14:34:41.651Z,3.25
2019-05-21T14:37:14.942Z,2.90
2019-05-21T14:39:43.439Z,3.05
2019-05-21T14:44:46.490Z,9.98
2019-05-21T14:47:14.929Z,13.78
2019-05-21T14:52:18.089Z,17.77
2019-05-21T14:54:57.815Z,18.55
2019-05-21T14:57:26.353Z,15.40
2019-05-21T14:59:59.553Z,15.13
2019-05-21T15:02:41.259Z,12.98
2019-05-21T15:05:12.588Z,13.38
2019-05-21T15:07:49.315Z,13.75
2019-05-21T15:10:15.116Z,12.82
2019-05-21T15:12:44.794Z,13.48
2019-05-21T15:15:39.853Z,12.47
2019-05-21T15:18:25.004Z,13.78
2019-05-21T15:20:55.189Z,13.48
2019-05-21T15:23:26.890Z,13.15
2019-05-21T15:25:55.337Z,13.25
2019-05-21T15:28:23.832Z,14.50
2019-05-21T15:31:01.115Z,13.53
2019-05-21T15:33:29.603Z,14.45
2019-05-21T15:35:58.004Z,14.05
2019-05-21T15:38:26.450Z,14.90
2019-05-21T15:41:09.394Z,12.90
2019-05-21T15:43:28.283Z,14.23
2019-05-21T15:46:05.230Z,14.53
2019-05-21T15:48:33.686Z,15.45
2019-05-21T15:51:02.282Z,15.45
2019-05-21T15:53:30.846Z,14.35
2019-05-21T15:55:59.285Z,14.40
2019-05-21T15:58:27.857Z,13.40
2019-05-21T16:00:56.376Z,12.05
2019-05-21T16:03:24.834Z,12.00
2019-05-21T16:06:12.601Z,12.63
2019-05-21T16:08:41.073Z,12.40
2019-05-21T16:11:25.745Z,10.98
2019-05-21T16:13:39.585Z,10.20
2019-05-21T16:16:08.030Z,10.28
2019-05-21T16:18:36.462Z,10.88
2019-05-21T16:21:04.919Z,10.05
2019-05-21T16:23:33.367Z,11.75
2019-05-21T16:26:23.377Z,10.58
2019-05-21T16:28:51.258Z,12.98
2019-05-21T16:31:19.703Z,13.75
2019-05-21T16:33:48.128Z,15.35
2019-05-21T16:36:16.582Z,15.98
2019-05-21T16:38:45.162Z,19.37
2019-05-21T16:41:13.605Z,21.80
2019-05-21T16:43:42.648Z,20.17
2019-05-21T16:46:11.149Z,20.52
2019-05-21T16:48:39.590Z,19.17
2019-05-21T16:51:08.046Z,19.70
2019-05-21T16:53:36.478Z,19.20
2019-05-21T16:56:04.923Z,17.98
2019-05-21T16:58:33.353Z,17.87
2019-05-21T17:01:21.209Z,17.40
2019-05-21T17:03:59.650Z,16.90
2019-05-21T17:06:20.224Z,17.50
2019-05-21T17:08:48.683Z,19.05
2019-05-21T17:11:17.106Z,18.55
2019-05-21T17:13:45.630Z,17.30
2019-05-21T17:16:14.071Z,13.95
2019-05-21T17:18:42.544Z,13.50
2019-05-21T17:21:33.787Z,13.78
2019-05-21T17:24:02.152Z,9.38
2019-05-21T17:26:30.584Z,5.83
2019-05-21T17:28:59.031Z,6.30
2019-05-21T17:31:27.445Z,7.15
2019-05-21T17:33:55.889Z,3.98
2019-05-21T17:36:24.338Z,4.00
2019-05-21T17:38:52.789Z,3.33
2019-05-21T17:41:21.205Z,3.83
2019-05-21T17:43:49.786Z,4.20
2019-05-21T17:46:19.081Z,3.80
2019-05-21T17:48:47.525Z,4.03
2019-05-21T17:51:15.985Z,4.17
2019-05-21T17:53:44.392Z,4.53
2019-05-21T17:56:12.942Z,4.00
2019-05-21T17:58:41.381Z,4.00
2019-05-21T18:01:11.648Z,4.05
2019-05-21T18:03:40.097Z,4.22
2019-05-21T18:06:08.969Z,4.05
2019-05-21T18:08:37.993Z,3.52
2019-05-21T18:11:07.544Z,3.70
2019-05-21T18:13:36.565Z,4.10
2019-05-21T18:16:06.214Z,3.58
2019-05-21T18:18:34.773Z,3.90
2019-05-21T18:21:04.558Z,3.72
2019-05-21T18:23:32.984Z,3.23
2019-05-21T18:26:01.483Z,3.58
2019-05-21T18:28:29.942Z,3.80
2019-05-21T18:30:58.450Z,3.67
2019-05-21T18:33:26.876Z,3.37
2019-05-21T18:35:55.344Z,3.42
2019-05-21T18:38:23.860Z,3.92
2019-05-21T18:40:52.365Z,4.10
2019-05-21T18:43:20.782Z,6.22
2019-05-21T18:45:49.241Z,4.25
2019-05-21T18:48:23.445Z,3.83
2019-05-21T18:50:57.318Z,3.90
2019-05-21T18:53:25.518Z,3.92
2019-05-21T18:55:53.953Z,3.75
2019-05-21T18:58:22.496Z,12.55
2019-05-21T19:00:50.955Z,5.50
2019-05-21T19:03:25.122Z,4.85
2019-05-21T19:05:49.468Z,4.37
2019-05-21T19:08:17.941Z,3.80
2019-05-21T19:10:46.373Z,4.40
2019-05-21T19:13:14.859Z,4.30
2019-05-21T19:15:43.324Z,4.20
2019-05-21T19:18:11.761Z,4.67
2019-05-21T19:20:40.354Z,4.37
2019-05-21T19:23:08.766Z,4.33
2019-05-21T19:25:37.192Z,4.47
2019-05-21T19:28:05.605Z,4.47
2019-05-21T19:30:34.731Z,4.35
2019-05-21T19:33:04.033Z,4.40
2019-05-21T19:35:33.150Z,4.65
2019-05-21T19:38:01.865Z,4.75
2019-05-21T19:40:30.356Z,4.87
2019-05-21T19:42:58.765Z,4.67
2019-05-21T19:45:27.204Z,5.12
2019-05-21T19:47:55.651Z,4.97
2019-05-21T19:50:24.085Z,5.00
2019-05-21T19:52:52.534Z,5.40
2019-05-21T19:55:21.000Z,5.12
2019-05-21T19:57:49.555Z,4.95
2019-05-21T20:00:23.032Z,4.87
2019-05-21T20:03:03.829Z,5.05
2019-05-21T20:05:32.888Z,5.40
2019-05-21T20:08:01.370Z,5.12
2019-05-21T20:10:29.843Z,5.83
2019-05-21T20:12:58.269Z,5.42
2019-05-21T20:15:46.049Z,4.80
2019-05-21T20:18:15.393Z,5.22
2019-05-21T20:20:44.413Z,4.97
2019-05-21T20:23:14.424Z,4.83
2019-05-21T20:25:55.270Z,4.70
2019-05-21T20:28:12.931Z,4.95
2019-05-21T20:30:44.738Z,4.65
2019-05-21T20:33:13.537Z,4.50
2019-05-21T20:35:43.022Z,4.97
2019-05-21T20:38:12.279Z,4.62
2019-05-21T20:40:40.829Z,4.65
2019-05-21T20:43:09.634Z,5.20
2019-05-21T20:45:39.665Z,5.35
2019-05-21T20:48:09.258Z,4.97
2019-05-21T20:50:38.524Z,4.75
2019-05-21T20:53:08.020Z,5.37
2019-05-21T20:58:05.831Z,5.22
2019-05-21T21:00:54.266Z,5.15
2019-05-21T21:03:22.813Z,5.58
2019-05-21T21:05:51.261Z,5.17
2019-05-21T21:08:20.820Z,4.90
2019-05-21T21:10:49.252Z,5.33
2019-05-21T21:13:18.804Z,5.45
2019-05-21T21:15:48.633Z,5.33
2019-05-21T21:18:17.204Z,5.42
2019-05-21T21:20:45.626Z,5.65
2019-05-21T21:23:15.667Z,5.53
2019-05-21T21:25:44.126Z,5.05
2019-05-21T21:28:13.036Z,4.83
2019-05-21T21:30:41.470Z,5.67
2019-05-21T21:33:11.483Z,5.20
2019-05-21T21:35:40.109Z,5.33
2019-05-21T21:38:11.470Z,6.62
2019-05-21T21:40:40.031Z,5.80
2019-05-21T21:43:08.477Z,5.90
2019-05-21T21:45:38.502Z,6.53
2019-05-21T21:48:08.021Z,7.33
2019-05-21T21:50:37.389Z,8.03
2019-05-21T21:53:05.821Z,8.35
2019-05-21T21:55:34.369Z,8.55
2019-05-21T21:58:02.826Z,8.73
2019-05-21T22:00:40.358Z,8.80
2019-05-21T22:03:08.903Z,9.08
2019-05-21T22:05:37.852Z,8.83
2019-05-21T22:08:07.002Z,8.03
2019-05-21T22:10:37.005Z,8.40
2019-05-21T22:13:06.584Z,8.58
2019-05-21T22:15:35.051Z,8.10
2019-05-21T22:18:03.906Z,8.70
2019-05-21T22:20:32.356Z,8.78
2019-05-21T22:23:00.852Z,8.90
2019-05-21T22:25:29.288Z,8.88
2019-05-21T22:27:57.750Z,9.73
2019-05-21T22:30:27.751Z,8.65
2019-05-21T22:32:56.224Z,9.33
2019-05-21T22:35:24.649Z,9.33
2019-05-21T22:37:53.110Z,9.85
2019-05-21T22:40:21.524Z,9.70
2019-05-21T22:42:50.081Z,9.88
2019-05-21T22:45:18.531Z,9.00
2019-05-21T22:47:46.949Z,8.95
2019-05-21T22:50:17.074Z,8.65
2019-05-21T22:52:45.983Z,8.85
2019-05-21T22:55:14.433Z,9.23
2019-05-21T22:57:42.896Z,9.08
2019-05-21T23:00:11.464Z,8.98
2019-05-21T23:02:41.520Z,9.75
2019-05-21T23:05:10.157Z,8.95
2019-05-21T23:07:38.594Z,8.98
2019-05-21T23:10:08.249Z,8.95
2019-05-21T23:12:37.185Z,9.38
2019-05-21T23:15:23.837Z,9.75
2019-05-21T23:17:38.894Z,9.90
2019-05-21T23:20:07.876Z,9.65
2019-05-21T23:22:36.299Z,9.90
2019-05-21T23:25:06.457Z,9.70
2019-05-21T23:27:35.405Z,9.70
2019-05-21T23:30:05.954Z,10.13
2019-05-21T23:32:34.405Z,10.45
2019-05-21T23:35:03.929Z,9.68
2019-05-21T23:37:33.578Z,9.65
2019-05-21T23:40:02.214Z,10.32
2019-05-21T23:42:31.350Z,9.95
2019-05-21T23:44:59.802Z,9.43
2019-05-21T23:47:28.269Z,10.72
2019-05-21T23:49:56.707Z,9.73
2019-05-21T23:52:26.569Z,9.98
2019-05-21T23:54:55.026Z,10.63
2019-05-21T23:57:27.384Z,10.32
2019-05-21T23:59:56.320Z,10.15
